sensor_id;sensor_type;location;lat;lon;timestamp;P1;durP1;ratioP1;P2;durP2;ratioP2
7761;SDS011;3925;48.636;9.516;2023-04-02T00:01:43;1.07;;;0.37;;
7761;SDS011;3925;48.636;9.516;2023-04-02T00:04:11;0.60;;;0.33;;
7761;SDS011;3925;48.636;9.516;2023-04-02T00:06:47;0.30;;;0.30;;
7761;SDS011;3925;48.636;9.516;2023-04-02T00:09:28;0.40;;;0.40;;
7761;SDS011;3925;48.636;9.516;2023-04-02T00:12:11;0.40;;;0.37;;
7761;SDS011;3925;48.636;9.516;2023-04-02T00:14:44;0.40;;;0.40;;
7761;SDS011;3925;48.636;9.516;2023-04-02T00:17:15;0.80;;;0.40;;
7761;SDS011;3925;48.636;9.516;2023-04-02T00:19:44;1.17;;;0.20;;
7761;SDS011;3925;48.636;9.516;2023-04-02T00:22:17;0.43;;;0.43;;
7761;SDS011;3925;48.636;9.516;2023-04-02T00:24:49;0.40;;;0.40;;
7761;SDS011;3925;48.636;9.516;2023-04-02T00:27:17;0.60;;;0.50;;
7761;SDS011;3925;48.636;9.516;2023-04-02T00:29:46;0.40;;;0.40;;
7761;SDS011;3925;48.636;9.516;2023-04-02T00:32:16;0.37;;;0.37;;
7761;SDS011;3925;48.636;9.516;2023-04-02T00:34:47;0.80;;;0.70;;
7761;SDS011;3925;48.636;9.516;2023-04-02T00:37:16;0.50;;;0.50;;
7761;SDS011;3925;48.636;9.516;2023-04-02T00:39:48;0.73;;;0.53;;
7761;SDS011;3925;48.636;9.516;2023-04-02T00:42:17;1.13;;;0.40;;
7761;SDS011;3925;48.636;9.516;2023-04-02T00:44:45;0.60;;;0.60;;
7761;SDS011;3925;48.636;9.516;2023-04-02T00:47:14;0.90;;;0.50;;
7761;SDS011;3925;48.636;9.516;2023-04-02T00:49:47;0.53;;;0.50;;
7761;SDS011;3925;48.636;9.516;2023-04-02T00:52:21;0.37;;;0.37;;
7761;SDS011;3925;48.636;9.516;2023-04-02T00:54:52;1.23;;;0.60;;
7761;SDS011;3925;48.636;9.516;2023-04-02T00:57:24;0.57;;;0.37;;
7761;SDS011;3925;48.636;9.516;2023-04-02T00:59:57;0.80;;;0.40;;
7761;SDS011;3925;48.636;9.516;2023-04-02T01:02:28;0.50;;;0.40;;
7761;SDS011;3925;48.636;9.516;2023-04-02T01:04:57;0.40;;;0.40;;
7761;SDS011;3925;48.636;9.516;2023-04-02T01:07:34;0.40;;;0.30;;
7761;SDS011;3925;48.636;9.516;2023-04-02T01:10:29;0.40;;;0.40;;
7761;SDS011;3925;48.636;9.516;2023-04-02T01:13:18;0.50;;;0.50;;
7761;SDS011;3925;48.636;9.516;2023-04-02T01:15:51;0.60;;;0.57;;
7761;SDS011;3925;48.636;9.516;2023-04-02T01:18:25;0.40;;;0.40;;
7761;SDS011;3925;48.636;9.516;2023-04-02T01:21:25;0.60;;;0.50;;
7761;SDS011;3925;48.636;9.516;2023-04-02T01:24:04;0.40;;;0.40;;
7761;SDS011;3925;48.636;9.516;2023-04-02T01:26:35;0.70;;;0.60;;
7761;SDS011;3925;48.636;9.516;2023-04-02T01:29:13;0.40;;;0.40;;
7761;SDS011;3925;48.636;9.516;2023-04-02T01:31:42;0.50;;;0.40;;
7761;SDS011;3925;48.636;9.516;2023-04-02T01:34:11;0.70;;;0.50;;
7761;SDS011;3925;48.636;9.516;2023-04-02T01:36:41;0.37;;;0.30;;
7761;SDS011;3925;48.636;9.516;2023-04-02T01:39:18;0.63;;;0.43;;
7761;SDS011;3925;48.636;9.516;2023-04-02T01:41:56;1.50;;;0.60;;
7761;SDS011;3925;48.636;9.516;2023-04-02T01:44:32;0.40;;;0.40;;
7761;SDS011;3925;48.636;9.516;2023-04-02T01:47:02;0.67;;;0.47;;
7761;SDS011;3925;48.636;9.516;2023-04-02T01:49:35;1.33;;;0.43;;
7761;SDS011;3925;48.636;9.516;2023-04-02T01:52:04;2.57;;;0.70;;
7761;SDS011;3925;48.636;9.516;2023-04-02T01:54:31;0.50;;;0.50;;
7761;SDS011;3925;48.636;9.516;2023-04-02T01:57:01;0.93;;;0.60;;
7761;SDS011;3925;48.636;9.516;2023-04-02T01:59:29;0.60;;;0.60;;
7761;SDS011;3925;48.636;9.516;2023-04-02T02:01:58;0.67;;;0.60;;
7761;SDS011;3925;48.636;9.516;2023-04-02T02:04:27;1.00;;;0.97;;
7761;SDS011;3925;48.636;9.516;2023-04-02T02:06:55;0.93;;;0.50;;
7761;SDS011;3925;48.636;9.516;2023-04-02T02:09:25;0.40;;;0.40;;
7761;SDS011;3925;48.636;9.516;2023-04-02T02:11:55;0.60;;;0.60;;
7761;SDS011;3925;48.636;9.516;2023-04-02T02:14:23;0.53;;;0.53;;
7761;SDS011;3925;48.636;9.516;2023-04-02T02:16:52;1.07;;;0.93;;
7761;SDS011;3925;48.636;9.516;2023-04-02T02:19:23;0.40;;;0.40;;
7761;SDS011;3925;48.636;9.516;2023-04-02T02:21:55;0.50;;;0.50;;
7761;SDS011;3925;48.636;9.516;2023-04-02T02:24:30;0.40;;;0.40;;
7761;SDS011;3925;48.636;9.516;2023-04-02T02:27:02;0.47;;;0.47;;
7761;SDS011;3925;48.636;9.516;2023-04-02T02:29:51;0.97;;;0.60;;
7761;SDS011;3925;48.636;9.516;2023-04-02T02:32:23;0.80;;;0.57;;
7761;SDS011;3925;48.636;9.516;2023-04-02T02:34:54;2.50;;;0.80;;
7761;SDS011;3925;48.636;9.516;2023-04-02T02:37:27;0.60;;;0.53;;
7761;SDS011;3925;48.636;9.516;2023-04-02T02:39:57;0.50;;;0.50;;
7761;SDS011;3925;48.636;9.516;2023-04-02T02:42:27;1.53;;;0.67;;
7761;SDS011;3925;48.636;9.516;2023-04-02T02:44:57;0.57;;;0.57;;
7761;SDS011;3925;48.636;9.516;2023-04-02T02:47:28;1.03;;;0.50;;
7761;SDS011;3925;48.636;9.516;2023-04-02T02:49:59;0.73;;;0.47;;
7761;SDS011;3925;48.636;9.516;2023-04-02T02:52:29;0.60;;;0.60;;
7761;SDS011;3925;48.636;9.516;2023-04-02T02:54:58;0.70;;;0.70;;
7761;SDS011;3925;48.636;9.516;2023-04-02T02:57:30;0.90;;;0.60;;
7761;SDS011;3925;48.636;9.516;2023-04-02T02:59:59;1.07;;;0.50;;
7761;SDS011;3925;48.636;9.516;2023-04-02T03:02:31;0.70;;;0.63;;
7761;SDS011;3925;48.636;9.516;2023-04-02T03:05:01;0.40;;;0.40;;
7761;SDS011;3925;48.636;9.516;2023-04-02T03:07:29;0.70;;;0.50;;
7761;SDS011;3925;48.636;9.516;2023-04-02T03:09:58;1.20;;;0.50;;
7761;SDS011;3925;48.636;9.516;2023-04-02T03:12:33;0.83;;;0.83;;
7761;SDS011;3925;48.636;9.516;2023-04-02T03:15:06;1.33;;;0.80;;
7761;SDS011;3925;48.636;9.516;2023-04-02T03:17:43;0.50;;;0.50;;
7761;SDS011;3925;48.636;9.516;2023-04-02T03:20:16;1.47;;;0.90;;
7761;SDS011;3925;48.636;9.516;2023-04-02T03:22:49;1.63;;;0.93;;
7761;SDS011;3925;48.636;9.516;2023-04-02T03:25:26;0.57;;;0.57;;
7761;SDS011;3925;48.636;9.516;2023-04-02T03:27:59;0.50;;;0.50;;
7761;SDS011;3925;48.636;9.516;2023-04-02T03:30:31;0.40;;;0.37;;
7761;SDS011;3925;48.636;9.516;2023-04-02T03:33:05;1.13;;;0.90;;
7761;SDS011;3925;48.636;9.516;2023-04-02T03:35:39;0.63;;;0.63;;
7761;SDS011;3925;48.636;9.516;2023-04-02T03:38:11;0.50;;;0.50;;
7761;SDS011;3925;48.636;9.516;2023-04-02T03:40:41;1.33;;;1.23;;
7761;SDS011;3925;48.636;9.516;2023-04-02T03:43:14;0.70;;;0.70;;
7761;SDS011;3925;48.636;9.516;2023-04-02T03:45:47;1.03;;;0.40;;
7761;SDS011;3925;48.636;9.516;2023-04-02T03:48:19;0.50;;;0.50;;
7761;SDS011;3925;48.636;9.516;2023-04-02T03:50:54;0.97;;;0.53;;
7761;SDS011;3925;48.636;9.516;2023-04-02T03:53:25;0.90;;;0.83;;
7761;SDS011;3925;48.636;9.516;2023-04-02T03:55:56;1.53;;;0.83;;
7761;SDS011;3925;48.636;9.516;2023-04-02T03:58:26;1.03;;;0.90;;
7761;SDS011;3925;48.636;9.516;2023-04-02T04:00:58;1.43;;;0.60;;
7761;SDS011;3925;48.636;9.516;2023-04-02T04:03:37;1.23;;;0.50;;
7761;SDS011;3925;48.636;9.516;2023-04-02T04:06:07;1.03;;;0.57;;
7761;SDS011;3925;48.636;9.516;2023-04-02T04:08:41;0.60;;;0.60;;
7761;SDS011;3925;48.636;9.516;2023-04-02T04:11:13;0.60;;;0.60;;
7761;SDS011;3925;48.636;9.516;2023-04-02T04:13:44;2.43;;;1.10;;
7761;SDS011;3925;48.636;9.516;2023-04-02T04:16:18;2.10;;;0.70;;
7761;SDS011;3925;48.636;9.516;2023-04-02T04:18:50;0.97;;;0.73;;
7761;SDS011;3925;48.636;9.516;2023-04-02T04:21:27;0.40;;;0.40;;
7761;SDS011;3925;48.636;9.516;2023-04-02T04:24:03;1.13;;;1.03;;
7761;SDS011;3925;48.636;9.516;2023-04-02T04:26:34;1.80;;;0.60;;
7761;SDS011;3925;48.636;9.516;2023-04-02T04:29:09;0.67;;;0.50;;
7761;SDS011;3925;48.636;9.516;2023-04-02T04:31:44;0.73;;;0.73;;
7761;SDS011;3925;48.636;9.516;2023-04-02T04:34:15;0.90;;;0.80;;
7761;SDS011;3925;48.636;9.516;2023-04-02T04:36:46;0.53;;;0.50;;
7761;SDS011;3925;48.636;9.516;2023-04-02T04:39:20;2.37;;;0.53;;
7761;SDS011;3925;48.636;9.516;2023-04-02T04:41:53;0.90;;;0.53;;
7761;SDS011;3925;48.636;9.516;2023-04-02T04:44:23;1.33;;;0.70;;
7761;SDS011;3925;48.636;9.516;2023-04-02T04:46:51;0.50;;;0.30;;
7761;SDS011;3925;48.636;9.516;2023-04-02T04:49:26;0.70;;;0.70;;
7761;SDS011;3925;48.636;9.516;2023-04-02T04:51:58;0.60;;;0.40;;
7761;SDS011;3925;48.636;9.516;2023-04-02T04:54:31;0.93;;;0.60;;
7761;SDS011;3925;48.636;9.516;2023-04-02T04:57:01;1.03;;;0.90;;
7761;SDS011;3925;48.636;9.516;2023-04-02T04:59:30;1.90;;;0.50;;
7761;SDS011;3925;48.636;9.516;2023-04-02T05:02:01;1.20;;;0.83;;
7761;SDS011;3925;48.636;9.516;2023-04-02T05:04:34;1.17;;;0.60;;
7761;SDS011;3925;48.636;9.516;2023-04-02T05:07:04;1.00;;;1.00;;
7761;SDS011;3925;48.636;9.516;2023-04-02T05:09:35;1.77;;;0.60;;
7761;SDS011;3925;48.636;9.516;2023-04-02T05:12:07;0.80;;;0.70;;
7761;SDS011;3925;48.636;9.516;2023-04-02T05:14:44;1.97;;;0.60;;
7761;SDS011;3925;48.636;9.516;2023-04-02T05:17:16;0.83;;;0.83;;
7761;SDS011;3925;48.636;9.516;2023-04-02T05:19:49;3.43;;;1.20;;
7761;SDS011;3925;48.636;9.516;2023-04-02T05:22:23;1.40;;;0.63;;
7761;SDS011;3925;48.636;9.516;2023-04-02T05:24:57;0.80;;;0.70;;
7761;SDS011;3925;48.636;9.516;2023-04-02T05:27:34;1.13;;;0.60;;
7761;SDS011;3925;48.636;9.516;2023-04-02T05:30:07;1.03;;;0.70;;
7761;SDS011;3925;48.636;9.516;2023-04-02T05:32:39;0.63;;;0.50;;
7761;SDS011;3925;48.636;9.516;2023-04-02T05:35:15;1.23;;;1.00;;
7761;SDS011;3925;48.636;9.516;2023-04-02T05:37:44;1.17;;;0.73;;
7761;SDS011;3925;48.636;9.516;2023-04-02T05:40:13;1.77;;;0.90;;
7761;SDS011;3925;48.636;9.516;2023-04-02T05:42:46;0.87;;;0.70;;
7761;SDS011;3925;48.636;9.516;2023-04-02T05:45:18;0.60;;;0.60;;
7761;SDS011;3925;48.636;9.516;2023-04-02T05:47:48;1.70;;;0.90;;
7761;SDS011;3925;48.636;9.516;2023-04-02T05:50:24;1.40;;;0.60;;
7761;SDS011;3925;48.636;9.516;2023-04-02T05:52:55;0.40;;;0.40;;
7761;SDS011;3925;48.636;9.516;2023-04-02T05:55:28;3.80;;;1.90;;
7761;SDS011;3925;48.636;9.516;2023-04-02T05:58:11;1.30;;;0.50;;
7761;SDS011;3925;48.636;9.516;2023-04-02T06:00:47;1.53;;;0.70;;
7761;SDS011;3925;48.636;9.516;2023-04-02T06:03:33;1.97;;;0.80;;
7761;SDS011;3925;48.636;9.516;2023-04-02T06:06:12;0.63;;;0.63;;
7761;SDS011;3925;48.636;9.516;2023-04-02T06:08:44;0.67;;;0.67;;
7761;SDS011;3925;48.636;9.516;2023-04-02T06:11:17;1.27;;;0.70;;
7761;SDS011;3925;48.636;9.516;2023-04-02T06:13:48;0.70;;;0.70;;
7761;SDS011;3925;48.636;9.516;2023-04-02T06:16:15;3.90;;;1.60;;
7761;SDS011;3925;48.636;9.516;2023-04-02T06:18:42;1.03;;;0.77;;
7761;SDS011;3925;48.636;9.516;2023-04-02T06:21:13;1.40;;;1.30;;
7761;SDS011;3925;48.636;9.516;2023-04-02T06:23:44;0.70;;;0.67;;
7761;SDS011;3925;48.636;9.516;2023-04-02T06:26:17;0.90;;;0.80;;
7761;SDS011;3925;48.636;9.516;2023-04-02T06:28:47;0.63;;;0.60;;
7761;SDS011;3925;48.636;9.516;2023-04-02T06:31:22;0.60;;;0.60;;
7761;SDS011;3925;48.636;9.516;2023-04-02T06:33:53;2.37;;;1.13;;
7761;SDS011;3925;48.636;9.516;2023-04-02T06:36:23;1.27;;;0.80;;
7761;SDS011;3925;48.636;9.516;2023-04-02T06:38:53;0.70;;;0.70;;
7761;SDS011;3925;48.636;9.516;2023-04-02T06:41:24;1.23;;;1.20;;
7761;SDS011;3925;48.636;9.516;2023-04-02T06:43:51;2.10;;;1.00;;
7761;SDS011;3925;48.636;9.516;2023-04-02T06:46:22;0.93;;;0.70;;
7761;SDS011;3925;48.636;9.516;2023-04-02T06:48:55;0.90;;;0.90;;
7761;SDS011;3925;48.636;9.516;2023-04-02T06:51:30;1.27;;;0.93;;
7761;SDS011;3925;48.636;9.516;2023-04-02T06:53:59;0.80;;;0.63;;
7761;SDS011;3925;48.636;9.516;2023-04-02T06:56:28;4.73;;;1.10;;
7761;SDS011;3925;48.636;9.516;2023-04-02T06:59:05;1.53;;;1.37;;
7761;SDS011;3925;48.636;9.516;2023-04-02T07:01:34;1.70;;;1.53;;
7761;SDS011;3925;48.636;9.516;2023-04-02T07:04:05;2.07;;;1.40;;
7761;SDS011;3925;48.636;9.516;2023-04-02T07:06:34;1.90;;;0.90;;
7761;SDS011;3925;48.636;9.516;2023-04-02T07:09:01;2.43;;;1.57;;
7761;SDS011;3925;48.636;9.516;2023-04-02T07:11:28;0.77;;;0.77;;
7761;SDS011;3925;48.636;9.516;2023-04-02T07:13:55;1.23;;;1.17;;
7761;SDS011;3925;48.636;9.516;2023-04-02T07:16:23;1.80;;;0.90;;
7761;SDS011;3925;48.636;9.516;2023-04-02T07:18:51;0.83;;;0.83;;
7761;SDS011;3925;48.636;9.516;2023-04-02T07:21:20;1.33;;;1.23;;
7761;SDS011;3925;48.636;9.516;2023-04-02T07:23:48;5.77;;;3.00;;
7761;SDS011;3925;48.636;9.516;2023-04-02T07:26:16;4.90;;;3.07;;
7761;SDS011;3925;48.636;9.516;2023-04-02T07:28:43;2.43;;;1.23;;
7761;SDS011;3925;48.636;9.516;2023-04-02T07:31:14;1.23;;;0.67;;
7761;SDS011;3925;48.636;9.516;2023-04-02T07:33:42;1.43;;;0.90;;
7761;SDS011;3925;48.636;9.516;2023-04-02T07:36:11;1.33;;;0.90;;
7761;SDS011;3925;48.636;9.516;2023-04-02T07:38:40;0.80;;;0.73;;
7761;SDS011;3925;48.636;9.516;2023-04-02T07:41:09;1.03;;;1.00;;
7761;SDS011;3925;48.636;9.516;2023-04-02T07:43:36;1.93;;;1.40;;
7761;SDS011;3925;48.636;9.516;2023-04-02T07:46:04;0.90;;;0.80;;
7761;SDS011;3925;48.636;9.516;2023-04-02T07:48:32;1.13;;;0.97;;
7761;SDS011;3925;48.636;9.516;2023-04-02T07:50:59;2.07;;;1.10;;
7761;SDS011;3925;48.636;9.516;2023-04-02T07:53:28;0.70;;;0.70;;
7761;SDS011;3925;48.636;9.516;2023-04-02T07:55:57;1.60;;;0.90;;
7761;SDS011;3925;48.636;9.516;2023-04-02T07:58:27;1.97;;;0.80;;
7761;SDS011;3925;48.636;9.516;2023-04-02T08:00:54;1.10;;;1.00;;
7761;SDS011;3925;48.636;9.516;2023-04-02T08:03:21;1.70;;;1.10;;
7761;SDS011;3925;48.636;9.516;2023-04-02T08:05:48;1.10;;;1.10;;
7761;SDS011;3925;48.636;9.516;2023-04-02T08:08:17;1.70;;;1.60;;
7761;SDS011;3925;48.636;9.516;2023-04-02T08:10:44;3.23;;;1.00;;
7761;SDS011;3925;48.636;9.516;2023-04-02T08:13:11;1.33;;;1.23;;
7761;SDS011;3925;48.636;9.516;2023-04-02T08:15:39;1.33;;;0.80;;
7761;SDS011;3925;48.636;9.516;2023-04-02T08:18:06;1.00;;;1.00;;
7761;SDS011;3925;48.636;9.516;2023-04-02T08:20:33;0.90;;;0.90;;
7761;SDS011;3925;48.636;9.516;2023-04-02T08:23:00;2.07;;;0.93;;
7761;SDS011;3925;48.636;9.516;2023-04-02T08:25:27;1.43;;;0.87;;
7761;SDS011;3925;48.636;9.516;2023-04-02T08:27:54;1.03;;;0.80;;
7761;SDS011;3925;48.636;9.516;2023-04-02T08:30:21;1.20;;;1.10;;
7761;SDS011;3925;48.636;9.516;2023-04-02T08:32:50;3.60;;;1.20;;
7761;SDS011;3925;48.636;9.516;2023-04-02T08:35:17;1.60;;;1.13;;
7761;SDS011;3925;48.636;9.516;2023-04-02T08:37:44;1.70;;;1.10;;
7761;SDS011;3925;48.636;9.516;2023-04-02T08:40:17;2.27;;;0.90;;
7761;SDS011;3925;48.636;9.516;2023-04-02T08:42:49;1.83;;;1.03;;
7761;SDS011;3925;48.636;9.516;2023-04-02T08:45:29;1.30;;;1.20;;
7761;SDS011;3925;48.636;9.516;2023-04-02T08:48:07;1.43;;;0.80;;
7761;SDS011;3925;48.636;9.516;2023-04-02T08:50:37;1.63;;;1.50;;
7761;SDS011;3925;48.636;9.516;2023-04-02T08:53:06;1.63;;;1.03;;
7761;SDS011;3925;48.636;9.516;2023-04-02T08:55:41;0.90;;;0.90;;
7761;SDS011;3925;48.636;9.516;2023-04-02T08:58:19;1.10;;;1.00;;
7761;SDS011;3925;48.636;9.516;2023-04-02T09:00:54;3.60;;;1.10;;
7761;SDS011;3925;48.636;9.516;2023-04-02T09:03:26;1.00;;;0.90;;
7761;SDS011;3925;48.636;9.516;2023-04-02T09:05:54;1.43;;;1.10;;
7761;SDS011;3925;48.636;9.516;2023-04-02T09:08:24;1.50;;;1.10;;
7761;SDS011;3925;48.636;9.516;2023-04-02T09:10:53;0.83;;;0.83;;
7761;SDS011;3925;48.636;9.516;2023-04-02T09:13:26;2.40;;;1.30;;
7761;SDS011;3925;48.636;9.516;2023-04-02T09:15:55;1.43;;;1.33;;
7761;SDS011;3925;48.636;9.516;2023-04-02T09:18:29;1.80;;;1.40;;
7761;SDS011;3925;48.636;9.516;2023-04-02T09:20:58;1.27;;;1.17;;
7761;SDS011;3925;48.636;9.516;2023-04-02T09:23:28;1.07;;;1.03;;
7761;SDS011;3925;48.636;9.516;2023-04-02T09:25:55;2.00;;;1.10;;
7761;SDS011;3925;48.636;9.516;2023-04-02T09:28:22;1.53;;;1.03;;
7761;SDS011;3925;48.636;9.516;2023-04-02T09:30:54;0.80;;;0.80;;
7761;SDS011;3925;48.636;9.516;2023-04-02T09:36:24;0.93;;;0.73;;
7761;SDS011;3925;48.636;9.516;2023-04-02T09:38:58;2.13;;;0.77;;
7761;SDS011;3925;48.636;9.516;2023-04-02T09:41:31;0.73;;;0.73;;
7761;SDS011;3925;48.636;9.516;2023-04-02T09:46:52;0.60;;;0.60;;
7761;SDS011;3925;48.636;9.516;2023-04-02T09:49:23;1.27;;;0.60;;
7761;SDS011;3925;48.636;9.516;2023-04-02T09:52:05;0.40;;;0.40;;
7761;SDS011;3925;48.636;9.516;2023-04-02T09:54:43;0.40;;;0.30;;
7761;SDS011;3925;48.636;9.516;2023-04-02T09:57:16;0.53;;;0.53;;
7761;SDS011;3925;48.636;9.516;2023-04-02T09:59:54;0.60;;;0.50;;
7761;SDS011;3925;48.636;9.516;2023-04-02T10:02:35;0.80;;;0.43;;
7761;SDS011;3925;48.636;9.516;2023-04-02T10:05:05;0.40;;;0.40;;
7761;SDS011;3925;48.636;9.516;2023-04-02T10:07:44;0.77;;;0.43;;
7761;SDS011;3925;48.636;9.516;2023-04-02T10:10:19;1.43;;;0.50;;
7761;SDS011;3925;48.636;9.516;2023-04-02T10:12:48;1.00;;;0.70;;
7761;SDS011;3925;48.636;9.516;2023-04-02T10:15:22;1.13;;;0.57;;
7761;SDS011;3925;48.636;9.516;2023-04-02T10:17:56;2.50;;;1.00;;
7761;SDS011;3925;48.636;9.516;2023-04-02T10:20:32;0.83;;;0.63;;
7761;SDS011;3925;48.636;9.516;2023-04-02T10:23:03;0.80;;;0.80;;
7761;SDS011;3925;48.636;9.516;2023-04-02T10:25:31;0.60;;;0.60;;
7761;SDS011;3925;48.636;9.516;2023-04-02T10:28:07;1.50;;;1.40;;
7761;SDS011;3925;48.636;9.516;2023-04-02T10:30:42;2.03;;;0.67;;
7761;SDS011;3925;48.636;9.516;2023-04-02T10:33:20;1.13;;;0.77;;
7761;SDS011;3925;48.636;9.516;2023-04-02T10:35:55;1.07;;;0.60;;
7761;SDS011;3925;48.636;9.516;2023-04-02T10:38:29;1.37;;;1.27;;
7761;SDS011;3925;48.636;9.516;2023-04-02T10:41:08;0.93;;;0.93;;
7761;SDS011;3925;48.636;9.516;2023-04-02T10:43:52;0.60;;;0.60;;
7761;SDS011;3925;48.636;9.516;2023-04-02T10:46:40;0.60;;;0.60;;
7761;SDS011;3925;48.636;9.516;2023-04-02T10:49:16;0.97;;;0.97;;
7761;SDS011;3925;48.636;9.516;2023-04-02T10:51:56;2.00;;;1.10;;
7761;SDS011;3925;48.636;9.516;2023-04-02T10:54:32;1.20;;;0.97;;
7761;SDS011;3925;48.636;9.516;2023-04-02T10:57:06;1.20;;;1.00;;
7761;SDS011;3925;48.636;9.516;2023-04-02T10:59:39;0.63;;;0.63;;
7761;SDS011;3925;48.636;9.516;2023-04-02T11:02:16;0.63;;;0.63;;
7761;SDS011;3925;48.636;9.516;2023-04-02T11:04:51;1.00;;;0.97;;
7761;SDS011;3925;48.636;9.516;2023-04-02T11:07:23;1.10;;;0.80;;
7761;SDS011;3925;48.636;9.516;2023-04-02T11:09:53;0.90;;;0.90;;
7761;SDS011;3925;48.636;9.516;2023-04-02T11:12:23;1.33;;;0.73;;
7761;SDS011;3925;48.636;9.516;2023-04-02T11:14:55;1.27;;;1.20;;
7761;SDS011;3925;48.636;9.516;2023-04-02T11:17:22;0.70;;;0.70;;
7761;SDS011;3925;48.636;9.516;2023-04-02T11:19:50;4.20;;;0.87;;
7761;SDS011;3925;48.636;9.516;2023-04-02T11:22:17;0.73;;;0.73;;
7761;SDS011;3925;48.636;9.516;2023-04-02T11:24:49;1.03;;;0.77;;
7761;SDS011;3925;48.636;9.516;2023-04-02T11:27:26;0.70;;;0.63;;
7761;SDS011;3925;48.636;9.516;2023-04-02T11:29:58;1.30;;;0.87;;
7761;SDS011;3925;48.636;9.516;2023-04-02T11:32:34;1.03;;;0.90;;
7761;SDS011;3925;48.636;9.516;2023-04-02T11:38:00;1.03;;;0.70;;
7761;SDS011;3925;48.636;9.516;2023-04-02T11:40:46;1.10;;;0.80;;
7761;SDS011;3925;48.636;9.516;2023-04-02T11:52:00;1.40;;;0.50;;
7761;SDS011;3925;48.636;9.516;2023-04-02T11:54:28;0.73;;;0.73;;
7761;SDS011;3925;48.636;9.516;2023-04-02T11:57:02;1.10;;;0.80;;
7761;SDS011;3925;48.636;9.516;2023-04-02T11:59:38;1.10;;;1.00;;
7761;SDS011;3925;48.636;9.516;2023-04-02T12:02:12;0.80;;;0.80;;
7761;SDS011;3925;48.636;9.516;2023-04-02T12:04:57;2.10;;;0.77;;
7761;SDS011;3925;48.636;9.516;2023-04-02T12:07:52;1.10;;;0.73;;
7761;SDS011;3925;48.636;9.516;2023-04-02T12:10:52;1.30;;;0.90;;
7761;SDS011;3925;48.636;9.516;2023-04-02T12:16:18;1.33;;;0.50;;
7761;SDS011;3925;48.636;9.516;2023-04-02T12:18:47;1.27;;;0.97;;
7761;SDS011;3925;48.636;9.516;2023-04-02T12:21:18;0.90;;;0.73;;
7761;SDS011;3925;48.636;9.516;2023-04-02T12:23:47;2.07;;;1.53;;
7761;SDS011;3925;48.636;9.516;2023-04-02T12:26:28;0.97;;;0.87;;
7761;SDS011;3925;48.636;9.516;2023-04-02T12:31:57;1.80;;;1.23;;
7761;SDS011;3925;48.636;9.516;2023-04-02T12:34:25;1.10;;;1.00;;
7761;SDS011;3925;48.636;9.516;2023-04-02T12:36:54;1.00;;;0.90;;
7761;SDS011;3925;48.636;9.516;2023-04-02T12:39:26;2.10;;;0.80;;
7761;SDS011;3925;48.636;9.516;2023-04-02T12:41:53;2.03;;;1.10;;
7761;SDS011;3925;48.636;9.516;2023-04-02T12:44:22;1.10;;;1.10;;
7761;SDS011;3925;48.636;9.516;2023-04-02T12:46:52;1.57;;;1.47;;
7761;SDS011;3925;48.636;9.516;2023-04-02T12:49:26;2.20;;;1.40;;
7761;SDS011;3925;48.636;9.516;2023-04-02T12:52:00;1.20;;;1.10;;
7761;SDS011;3925;48.636;9.516;2023-04-02T12:54:28;1.80;;;1.20;;
7761;SDS011;3925;48.636;9.516;2023-04-02T12:59:45;3.93;;;3.10;;
7761;SDS011;3925;48.636;9.516;2023-04-02T13:02:18;3.37;;;2.47;;
7761;SDS011;3925;48.636;9.516;2023-04-02T13:04:46;3.77;;;1.43;;
7761;SDS011;3925;48.636;9.516;2023-04-02T13:07:15;3.00;;;2.20;;
7761;SDS011;3925;48.636;9.516;2023-04-02T13:09:44;2.40;;;1.70;;
7761;SDS011;3925;48.636;9.516;2023-04-02T13:12:21;4.73;;;2.00;;
7761;SDS011;3925;48.636;9.516;2023-04-02T13:14:51;0.70;;;0.70;;
7761;SDS011;3925;48.636;9.516;2023-04-02T13:17:36;0.90;;;0.53;;
7761;SDS011;3925;48.636;9.516;2023-04-02T13:23:22;1.27;;;1.27;;
7761;SDS011;3925;48.636;9.516;2023-04-02T13:25:50;1.20;;;1.20;;
7761;SDS011;3925;48.636;9.516;2023-04-02T13:28:17;0.50;;;0.47;;
7761;SDS011;3925;48.636;9.516;2023-04-02T13:30:44;1.20;;;1.20;;
7761;SDS011;3925;48.636;9.516;2023-04-02T13:33:13;0.70;;;0.70;;
7761;SDS011;3925;48.636;9.516;2023-04-02T13:35:41;1.23;;;1.07;;
7761;SDS011;3925;48.636;9.516;2023-04-02T13:38:08;1.83;;;1.63;;
7761;SDS011;3925;48.636;9.516;2023-04-02T13:40:35;1.20;;;1.10;;
7761;SDS011;3925;48.636;9.516;2023-04-02T13:43:03;0.53;;;0.53;;
7761;SDS011;3925;48.636;9.516;2023-04-02T13:45:31;1.27;;;1.07;;
7761;SDS011;3925;48.636;9.516;2023-04-02T13:48:01;1.10;;;1.00;;
7761;SDS011;3925;48.636;9.516;2023-04-02T13:50:30;0.80;;;0.80;;
7761;SDS011;3925;48.636;9.516;2023-04-02T13:53:00;1.80;;;1.70;;
7761;SDS011;3925;48.636;9.516;2023-04-02T13:55:33;1.00;;;1.00;;
7761;SDS011;3925;48.636;9.516;2023-04-02T13:58:02;1.40;;;1.30;;
7761;SDS011;3925;48.636;9.516;2023-04-02T14:00:30;0.87;;;0.80;;
7761;SDS011;3925;48.636;9.516;2023-04-02T14:02:59;0.73;;;0.60;;
7761;SDS011;3925;48.636;9.516;2023-04-02T14:05:34;0.50;;;0.50;;
7761;SDS011;3925;48.636;9.516;2023-04-02T14:08:07;0.80;;;0.80;;
7761;SDS011;3925;48.636;9.516;2023-04-02T14:10:49;1.80;;;1.70;;
7761;SDS011;3925;48.636;9.516;2023-04-02T14:13:36;0.70;;;0.70;;
7761;SDS011;3925;48.636;9.516;2023-04-02T14:16:18;0.40;;;0.40;;
7761;SDS011;3925;48.636;9.516;2023-04-02T14:19:00;0.63;;;0.63;;
7761;SDS011;3925;48.636;9.516;2023-04-02T14:21:45;0.60;;;0.57;;
7761;SDS011;3925;48.636;9.516;2023-04-02T14:24:22;0.53;;;0.53;;
7761;SDS011;3925;48.636;9.516;2023-04-02T14:27:01;0.37;;;0.30;;
7761;SDS011;3925;48.636;9.516;2023-04-02T14:29:36;0.97;;;0.70;;
7761;SDS011;3925;48.636;9.516;2023-04-02T14:32:10;0.60;;;0.40;;
7761;SDS011;3925;48.636;9.516;2023-04-02T14:34:47;0.37;;;0.30;;
7761;SDS011;3925;48.636;9.516;2023-04-02T14:37:24;0.83;;;0.83;;
7761;SDS011;3925;48.636;9.516;2023-04-02T14:40:01;0.30;;;0.30;;
7761;SDS011;3925;48.636;9.516;2023-04-02T14:42:36;0.63;;;0.60;;
7761;SDS011;3925;48.636;9.516;2023-04-02T14:45:08;1.00;;;1.00;;
7761;SDS011;3925;48.636;9.516;2023-04-02T14:47:43;1.23;;;0.73;;
7761;SDS011;3925;48.636;9.516;2023-04-02T14:50:12;0.60;;;0.60;;
7761;SDS011;3925;48.636;9.516;2023-04-02T14:52:44;0.70;;;0.70;;
7761;SDS011;3925;48.636;9.516;2023-04-02T14:55:17;1.90;;;0.80;;
7761;SDS011;3925;48.636;9.516;2023-04-02T14:57:51;1.13;;;0.80;;
7761;SDS011;3925;48.636;9.516;2023-04-02T15:00:23;0.90;;;0.90;;
7761;SDS011;3925;48.636;9.516;2023-04-02T15:02:54;0.90;;;0.90;;
7761;SDS011;3925;48.636;9.516;2023-04-02T15:05:31;1.00;;;1.00;;
7761;SDS011;3925;48.636;9.516;2023-04-02T15:08:05;0.90;;;0.90;;
7761;SDS011;3925;48.636;9.516;2023-04-02T15:10:38;1.10;;;1.00;;
7761;SDS011;3925;48.636;9.516;2023-04-02T15:13:13;1.40;;;1.30;;
7761;SDS011;3925;48.636;9.516;2023-04-02T15:15:44;2.70;;;1.93;;
7761;SDS011;3925;48.636;9.516;2023-04-02T15:18:16;1.23;;;1.13;;
7761;SDS011;3925;48.636;9.516;2023-04-02T15:20:46;2.00;;;1.80;;
7761;SDS011;3925;48.636;9.516;2023-04-02T15:23:24;1.50;;;1.40;;
7761;SDS011;3925;48.636;9.516;2023-04-02T15:26:01;2.63;;;1.73;;
7761;SDS011;3925;48.636;9.516;2023-04-02T15:28:38;2.23;;;1.10;;
7761;SDS011;3925;48.636;9.516;2023-04-02T15:31:10;1.40;;;1.30;;
7761;SDS011;3925;48.636;9.516;2023-04-02T15:33:40;2.57;;;2.47;;
7761;SDS011;3925;48.636;9.516;2023-04-02T15:39:06;1.67;;;1.57;;
7761;SDS011;3925;48.636;9.516;2023-04-02T15:41:52;1.67;;;1.53;;
7761;SDS011;3925;48.636;9.516;2023-04-02T15:44:27;1.70;;;1.60;;
7761;SDS011;3925;48.636;9.516;2023-04-02T15:46:55;2.40;;;1.90;;
7761;SDS011;3925;48.636;9.516;2023-04-02T15:49:35;1.83;;;1.73;;
7761;SDS011;3925;48.636;9.516;2023-04-02T15:52:07;2.23;;;2.10;;
7761;SDS011;3925;48.636;9.516;2023-04-02T15:57:41;1.87;;;1.77;;
7761;SDS011;3925;48.636;9.516;2023-04-02T16:00:23;2.43;;;2.23;;
7761;SDS011;3925;48.636;9.516;2023-04-02T16:03:09;3.00;;;2.53;;
7761;SDS011;3925;48.636;9.516;2023-04-02T16:05:48;2.13;;;2.03;;
7761;SDS011;3925;48.636;9.516;2023-04-02T16:08:32;2.20;;;1.93;;
7761;SDS011;3925;48.636;9.516;2023-04-02T16:11:10;2.23;;;1.93;;
7761;SDS011;3925;48.636;9.516;2023-04-02T16:13:38;2.37;;;2.17;;
7761;SDS011;3925;48.636;9.516;2023-04-02T16:16:06;1.80;;;1.40;;
7761;SDS011;3925;48.636;9.516;2023-04-02T16:18:46;2.53;;;1.97;;
7761;SDS011;3925;48.636;9.516;2023-04-02T16:21:19;2.57;;;2.03;;
7761;SDS011;3925;48.636;9.516;2023-04-02T16:23:47;1.30;;;1.30;;